Terminal Aerodrome Forecast
Issued by NWS

Home | Current Version | Previous Version | Text Only | Print | Product List | Glossary On
Versions: 1 2 3 4 5 6 7 8 9 10 11 12 13 14 15 16 17 18 19 20 21 22 23
678
FTUS43 KAPX 122320
TAFAPN
TAF
KAPN 122320Z 1300/1324 32016G26KT 5SM -SHSN BLSN SCT025 OVC040
      TEMPO 1300/1304 2SM -SHSN BLSN BKN025
     FM130600 33009KT P6SM VCSH SCT025 BKN040=

USA.gov is the U.S. government's official web portal to all federal, state and local government web resources and services.